Time;durP1;ratioP1;P1;durP2;ratioP2;P2;SDS_P1;SDS_P2;PMS_P1;PMS_P2;Temp;Humidity;BMP_temperature;BMP_pressure;BME280_temperature;BME280_humidity;BME280_pressure;Samples;Min_cycle;Max_cycle;Signal;HPM_P1;HPM_P2
2022/01/29 00:01:14;;;;;;;21.67;16.30;;;;;;;4.90;92.00;102107.84;5071856;28;20427;-45
2022/01/29 00:03:42;;;;;;;27.23;17.90;;;;;;;4.90;91.54;102084.06;5071817;28;20435;-46
2022/01/29 00:06:10;;;;;;;25.00;18.73;;;;;;;4.87;91.01;102082.53;5071169;28;20466;-43
2022/01/29 00:08:38;;;;;;;25.80;18.53;;;;;;;4.85;89.28;102070.41;5071694;28;20435;-48
2022/01/29 00:11:10;;;;;;;29.47;18.87;;;;;;;4.84;89.04;102064.28;5071591;28;21010;-44
2022/01/29 00:13:38;;;;;;;30.67;18.60;;;;;;;4.85;88.15;102059.84;5071751;28;20958;-47
2022/01/29 00:16:06;;;;;;;26.93;18.03;;;;;;;4.84;87.21;102055.50;5071040;28;20454;-47
2022/01/29 00:18:35;;;;;;;32.57;20.47;;;;;;;4.81;85.32;102056.59;5071452;28;20439;-46
2022/01/29 00:21:04;;;;;;;26.20;18.30;;;;;;;4.80;83.69;102057.59;5071465;28;20434;-46
2022/01/29 00:23:31;;;;;;;25.10;18.63;;;;;;;4.81;82.68;102042.53;5071752;28;20430;-44
2022/01/29 00:26:00;;;;;;;26.87;19.77;;;;;;;4.82;81.69;102046.88;5071200;28;20469;-45
2022/01/29 00:28:28;;;;;;;27.93;19.87;;;;;;;4.81;80.64;102032.81;5071457;28;20441;-44
2022/01/29 00:30:56;;;;;;;31.50;22.50;;;;;;;4.82;79.86;102042.44;5071691;28;20804;-45
2022/01/29 00:33:24;;;;;;;25.80;21.63;;;;;;;4.84;78.33;102037.84;5071363;28;20462;-44
2022/01/29 00:35:53;;;;;;;34.03;21.63;;;;;;;4.84;78.23;102029.06;5071567;28;20489;-47
2022/01/29 00:38:21;;;;;;;27.27;20.73;;;;;;;4.86;77.74;102019.22;5070715;28;20493;-48
2022/01/29 00:40:48;;;;;;;38.00;21.83;;;;;;;4.85;76.25;102017.53;5073621;28;20423;-44
2022/01/29 00:43:17;;;;;;;26.00;21.10;;;;;;;4.86;75.20;102014.78;5075245;28;20431;-47
2022/01/29 00:45:45;;;;;;;39.13;22.57;;;;;;;4.87;74.66;102005.03;5075024;28;20442;-43
2022/01/29 00:48:13;;;;;;;30.13;22.00;;;;;;;4.92;74.58;102008.16;5054453;28;20466;-45
2022/01/29 00:50:40;;;;;;;30.63;22.60;;;;;;;4.90;72.44;102004.78;5055142;28;20431;-44
2022/01/29 00:53:09;;;;;;;30.70;23.40;;;;;;;4.94;71.19;101990.34;5055108;28;20471;-46
2022/01/29 00:55:37;;;;;;;32.37;22.70;;;;;;;4.95;68.44;101992.03;5054910;28;20459;-48
2022/01/29 00:58:04;;;;;;;29.17;22.87;;;;;;;4.98;68.23;101982.03;5054411;28;20467;-51
2022/01/29 01:00:32;;;;;;;28.50;23.63;;;;;;;5.02;67.19;101964.09;5054886;28;20434;-43
2022/01/29 01:03:00;;;;;;;35.50;24.20;;;;;;;5.03;66.70;101971.06;5055111;28;20470;-46
2022/01/29 01:05:28;;;;;;;31.77;23.57;;;;;;;5.07;66.45;101963.72;5054848;28;20454;-46
2022/01/29 01:07:55;;;;;;;29.50;24.37;;;;;;;5.11;67.03;101950.06;5054265;28;20470;-44
2022/01/29 01:10:24;;;;;;;26.30;23.40;;;;;;;5.12;65.21;101948.28;5054887;28;20431;-46
2022/01/29 01:12:52;;;;;;;35.80;25.27;;;;;;;5.13;64.50;101923.53;5054640;28;20471;-44
2022/01/29 01:15:19;;;;;;;29.00;24.67;;;;;;;5.16;63.82;101921.47;5054569;28;20458;-46
2022/01/29 01:17:47;;;;;;;38.90;25.83;;;;;;;5.19;63.61;101918.53;5053945;28;20537;-43
2022/01/29 01:20:15;;;;;;;29.47;24.53;;;;;;;5.23;64.09;101911.16;5054697;28;20446;-45
2022/01/29 01:22:42;;;;;;;27.33;24.27;;;;;;;5.25;64.49;101899.50;5054499;28;20435;-44
2022/01/29 01:25:10;;;;;;;28.20;25.13;;;;;;;5.28;64.54;101901.03;5054449;28;20810;-49
2022/01/29 01:27:39;;;;;;;33.90;26.30;;;;;;;5.30;64.82;101892.00;5053616;28;20570;-46
2022/01/29 01:30:08;;;;;;;33.90;24.80;;;;;;;5.32;65.08;101874.16;5054616;28;20467;-45
2022/01/29 01:32:36;;;;;;;34.70;25.53;;;;;;;5.33;63.93;101870.56;5054397;28;20479;-43
2022/01/29 01:35:12;;;;;;;30.23;24.17;;;;;;;5.33;63.04;101861.78;5054301;28;20440;-43
2022/01/29 01:37:45;;;;;;;33.83;24.53;;;;;;;5.32;62.00;101846.88;5053722;28;20832;-44
2022/01/29 01:40:14;;;;;;;38.67;24.00;;;;;;;5.32;59.32;101849.53;5054450;28;20422;-46
2022/01/29 01:42:43;;;;;;;34.53;25.53;;;;;;;5.34;58.91;101837.88;5054361;28;20438;-45
2022/01/29 01:45:10;;;;;;;25.17;22.50;;;;;;;5.37;58.70;101842.03;5072792;28;21084;-45
2022/01/29 01:47:38;;;;;;;29.87;23.97;;;;;;;5.37;59.16;101828.81;5073448;28;20453;-46
2022/01/29 01:50:08;;;;;;;28.80;23.80;;;;;;;5.35;57.51;101831.56;5074121;28;20442;-49
2022/01/29 01:52:36;;;;;;;26.80;24.00;;;;;;;5.37;55.81;101827.00;5073408;28;20477;-46
2022/01/29 01:55:04;;;;;;;37.10;24.67;;;;;;;5.37;55.16;101820.88;5073789;28;20998;-45
2022/01/29 01:57:32;;;;;;;28.13;24.27;;;;;;;5.36;55.33;101819.19;5073779;28;20470;-45
2022/01/29 02:00:01;;;;;;;32.20;25.10;;;;;;;5.37;54.59;101820.88;5074046;28;20439;-45
2022/01/29 02:02:28;;;;;;;27.40;24.50;;;;;;;5.40;53.23;101792.34;5073921;28;20431;-42
2022/01/29 02:04:57;;;;;;;33.83;25.83;;;;;;;5.41;53.14;101796.66;5073624;28;20451;-44
2022/01/29 02:07:25;;;;;;;34.40;26.30;;;;;;;5.41;53.00;101794.00;5073191;28;20473;-41
2022/01/29 02:09:53;;;;;;;29.37;24.83;;;;;;;5.41;51.68;101798.44;5073603;28;20434;-46
2022/01/29 02:12:24;;;;;;;28.03;24.43;;;;;;;5.41;49.19;101791.34;5073664;28;20837;-45
2022/01/29 02:14:52;;;;;;;35.17;24.87;;;;;;;5.41;48.38;101788.72;5073619;28;20457;-49
2022/01/29 02:17:21;;;;;;;29.73;25.27;;;;;;;5.41;47.30;101772.00;5072828;28;20459;-47
2022/01/29 02:19:48;;;;;;;33.30;24.00;;;;;;;5.42;45.75;101766.59;5073433;28;20430;-42
2022/01/29 02:22:17;;;;;;;26.23;23.40;;;;;;;5.43;44.69;101772.72;5073600;28;20427;-44
2022/01/29 02:24:45;;;;;;;28.80;23.10;;;;;;;5.43;42.60;101755.03;5073459;28;20459;-47
2022/01/29 02:27:12;;;;;;;33.63;23.13;;;;;;;5.46;42.29;101722.19;5072789;28;20467;-46
2022/01/29 02:29:40;;;;;;;32.23;24.30;;;;;;;5.49;42.28;101725.38;5073368;28;20427;-43
2022/01/29 02:32:08;;;;;;;27.00;22.53;;;;;;;5.46;40.29;101708.94;5073084;28;21167;-47
2022/01/29 02:34:36;;;;;;;29.80;23.70;;;;;;;5.47;38.93;101710.59;5073323;28;20523;-44
2022/01/29 02:37:04;;;;;;;23.93;21.53;;;;;;;5.49;39.48;101706.03;5072819;28;20466;-42
2022/01/29 02:39:33;;;;;;;26.80;22.33;;;;;;;5.51;38.49;101704.91;5072972;28;20514;-48
2022/01/29 02:42:00;;;;;;;22.10;19.80;;;;;;;5.53;38.21;101688.88;5073137;28;20434;-46
2022/01/29 02:44:30;;;;;;;24.87;22.00;;;;;;;5.54;37.71;101680.81;5072754;28;20424;-43
2022/01/29 02:47:14;;;;;;;29.17;23.03;;;;;;;5.54;37.24;101672.88;5072475;28;20823;-44
2022/01/29 02:49:41;;;;;;;24.27;21.87;;;;;;;5.57;37.76;101666.47;5073175;28;20798;-43
2022/01/29 02:52:09;;;;;;;24.80;22.40;;;;;;;5.59;36.64;101690.94;5072887;28;20439;-45
2022/01/29 02:54:38;;;;;;;34.63;24.10;;;;;;;5.63;36.39;101665.06;5072546;28;20462;-44
2022/01/29 02:57:07;;;;;;;31.63;25.20;;;;;;;5.63;36.59;101662.41;5072182;28;20537;-42
2022/01/29 02:59:35;;;;;;;33.30;23.27;;;;;;;5.62;35.34;101658.09;5072758;28;20437;-44
2022/01/29 03:02:02;;;;;;;37.67;24.40;;;;;;;5.65;35.91;101639.28;5072729;28;20434;-45
2022/01/29 03:04:30;;;;;;;36.00;25.57;;;;;;;5.69;35.84;101644.16;5071796;28;20430;-45
2022/01/29 03:06:58;;;;;;;38.20;26.10;;;;;;;5.69;36.44;101632.72;5072113;28;20462;-46
2022/01/29 03:09:25;;;;;;;37.63;26.70;;;;;;;5.72;36.99;101627.16;5072345;28;20437;-43
2022/01/29 03:11:56;;;;;;;44.60;30.33;;;;;;;5.75;36.92;101624.22;5072424;28;20442;-46
2022/01/29 03:14:23;;;;;;;45.07;25.80;;;;;;;5.72;35.12;101621.84;5072432;28;20470;-42
2022/01/29 03:16:52;;;;;;;42.03;28.10;;;;;;;5.76;35.55;101620.59;5072001;28;20463;-48
2022/01/29 03:19:19;;;;;;;40.50;29.10;;;;;;;5.76;36.24;101618.78;5072329;28;20441;-45
2022/01/29 03:21:47;;;;;;;51.73;28.10;;;;;;;5.79;36.44;101617.66;5072109;28;20439;-45
2022/01/29 03:24:14;;;;;;;49.87;27.73;;;;;;;5.79;36.36;101601.78;5071895;28;20427;-45
2022/01/29 03:26:42;;;;;;;45.57;28.77;;;;;;;5.83;36.03;101611.94;5071528;28;20462;-44
2022/01/29 03:29:11;;;;;;;49.03;27.80;;;;;;;5.84;37.28;101599.53;5072148;28;20438;-46
2022/01/29 03:31:38;;;;;;;43.53;28.03;;;;;;;5.84;36.93;101594.25;5072044;28;20439;-42
2022/01/29 03:34:06;;;;;;;40.33;27.90;;;;;;;5.84;37.36;101589.78;5072079;28;20480;-42
2022/01/29 03:36:34;;;;;;;35.00;27.47;;;;;;;5.86;37.22;101598.44;5071502;28;20461;-48
2022/01/29 03:39:01;;;;;;;33.67;26.33;;;;;;;5.88;37.32;101583.25;5072013;28;20434;-43
2022/01/29 03:41:30;;;;;;;36.67;25.63;;;;;;;5.88;37.48;101583.25;5072218;28;20777;-42
2022/01/29 03:44:02;;;;;;;33.87;26.30;;;;;;;5.89;37.21;101574.31;5071896;28;20430;-42
2022/01/29 03:46:32;;;;;;;39.83;25.40;;;;;;;5.89;37.32;101563.72;5071537;28;20465;-48
2022/01/29 03:49:00;;;;;;;29.43;22.80;;;;;;;5.88;37.28;101567.38;5071772;28;20466;-44
2022/01/29 03:51:28;;;;;;;32.47;24.20;;;;;;;5.89;36.57;101562.91;5071824;28;20438;-46
2022/01/29 03:53:56;;;;;;;33.90;24.27;;;;;;;5.90;34.94;101561.91;5072001;28;20854;-45
2022/01/29 03:56:23;;;;;;;38.43;22.60;;;;;;;5.92;35.27;101550.19;5071188;28;20468;-47
2022/01/29 03:58:51;;;;;;;32.63;25.37;;;;;;;5.94;34.96;101545.59;5071644;28;20441;-43
2022/01/29 04:01:19;;;;;;;32.60;24.20;;;;;;;5.97;34.86;101549.78;5071877;28;20837;-44
2022/01/29 04:03:48;;;;;;;26.60;22.67;;;;;;;5.97;35.77;101532.06;5071674;28;20804;-44
2022/01/29 04:06:16;;;;;;;32.80;23.27;;;;;;;5.98;35.87;101535.53;5071183;28;20461;-42
2022/01/29 04:08:44;;;;;;;33.73;23.00;;;;;;;5.99;34.25;101535.41;5071686;28;20799;-45
2022/01/29 04:11:14;;;;;;;29.37;23.30;;;;;;;6.00;34.59;101541.53;5071827;28;20431;-43
2022/01/29 04:13:45;;;;;;;28.13;23.37;;;;;;;6.02;35.02;101537.75;5071612;28;20470;-43
2022/01/29 04:16:14;;;;;;;28.27;23.47;;;;;;;6.02;34.37;101529.81;5073724;28;20454;-45
2022/01/29 04:18:42;;;;;;;34.03;22.17;;;;;;;6.03;34.29;101528.00;5075783;28;20430;-48
2022/01/29 04:21:11;;;;;;;23.93;20.93;;;;;;;6.04;33.79;101519.91;5075902;28;20442;-45
2022/01/29 04:23:39;;;;;;;23.67;21.37;;;;;;;6.05;32.44;101521.56;5075735;28;20426;-42
2022/01/29 04:26:06;;;;;;;23.63;21.17;;;;;;;6.09;33.09;101514.19;5075236;28;20446;-47
2022/01/29 04:28:38;;;;;;;23.63;21.40;;;;;;;6.09;32.99;101500.94;5075401;28;20441;-43
2022/01/29 04:31:12;;;;;;;23.33;21.00;;;;;;;6.10;32.22;101498.13;5075788;28;20426;-42
2022/01/29 04:33:39;;;;;;;23.07;20.67;;;;;;;6.13;31.86;101502.28;5075437;28;21066;-42
2022/01/29 04:36:07;;;;;;;22.77;20.57;;;;;;;6.16;31.43;101494.03;5074850;28;20967;-47
2022/01/29 04:38:36;;;;;;;23.67;21.50;;;;;;;6.16;32.11;101486.09;5075288;28;20768;-44
2022/01/29 04:41:05;;;;;;;26.17;23.37;;;;;;;6.20;31.02;101484.00;5075383;28;20435;-42
2022/01/29 04:43:34;;;;;;;32.43;24.50;;;;;;;6.19;31.47;101471.72;5075103;28;20916;-49
2022/01/29 04:46:07;;;;;;;33.13;24.87;;;;;;;6.22;29.92;101466.97;5074637;28;20971;-42
2022/01/29 04:48:35;;;;;;;38.00;29.83;;;;;;;6.28;29.90;101458.41;5075075;28;20431;-44
2022/01/29 04:51:02;;;;;;;41.63;29.70;;;;;;;6.31;28.70;101446.66;5075249;28;20453;-42
2022/01/29 04:53:30;;;;;;;44.47;32.10;;;;;;;6.36;27.98;101447.88;5074992;28;20456;-43
2022/01/29 04:55:59;;;;;;;45.87;30.07;;;;;;;6.41;28.23;101444.78;5074753;28;20975;-46
2022/01/29 04:58:26;;;;;;;51.90;32.10;;;;;;;6.43;28.00;101441.00;5074637;28;20446;-44
2022/01/29 05:00:54;;;;;;;54.33;32.00;;;;;;;6.47;27.87;101439.72;5075215;28;20442;-46
2022/01/29 05:03:27;;;;;;;42.53;32.50;;;;;;;6.48;28.31;101437.91;5075060;28;20431;-44
2022/01/29 05:05:54;;;;;;;48.50;30.73;;;;;;;6.53;28.06;101443.56;5074739;28;21021;-47
2022/01/29 05:08:22;;;;;;;51.87;31.70;;;;;;;6.56;26.75;101430.00;5074177;28;20466;-42
2022/01/29 05:10:51;;;;;;;52.53;33.80;;;;;;;6.56;26.70;101428.19;5074923;28;20434;-45
2022/01/29 05:13:24;;;;;;;70.63;35.60;;;;;;;6.59;27.53;101421.75;5074737;28;20950;-43
2022/01/29 05:16:06;;;;;;;76.40;34.93;;;;;;;6.61;26.58;101406.53;5074722;28;20474;-44
2022/01/29 05:26:52;;;;;;;59.80;34.40;;;;;;;6.73;26.51;101413.25;5072957;28;20469;-43
2022/01/29 05:29:22;;;;;;;65.27;34.87;;;;;;;6.77;26.13;101414.59;5074174;28;20442;-45
2022/01/29 05:31:51;;;;;;;60.40;37.13;;;;;;;6.77;26.51;101413.75;5074599;28;20599;-45
2022/01/29 05:34:20;;;;;;;62.83;38.73;;;;;;;6.79;27.07;101398.53;5074533;28;20470;-43
2022/01/29 05:36:48;;;;;;;62.03;39.43;;;;;;;6.81;26.85;101397.38;5073818;28;20987;-42
2022/01/29 05:39:17;;;;;;;72.60;37.43;;;;;;;6.83;27.27;101387.47;5074157;28;20791;-43
2022/01/29 05:41:44;;;;;;;76.00;39.17;;;;;;;6.84;28.32;101386.47;5074136;28;20866;-49
2022/01/29 05:44:12;;;;;;;61.00;40.03;;;;;;;6.88;28.34;101384.34;5074169;28;20423;-45
2022/01/29 05:46:41;;;;;;;86.33;42.87;;;;;;;6.86;28.24;101368.59;5073376;28;21040;-42
2022/01/29 05:49:09;;;;;;;61.33;40.17;;;;;;;6.89;28.07;101376.25;5073984;28;20441;-46
2022/01/29 05:51:36;;;;;;;76.53;39.50;;;;;;;6.88;29.08;101348.06;5074107;28;20460;-45
2022/01/29 05:54:05;;;;;;;76.70;39.30;;;;;;;6.88;29.74;101344.56;5073898;28;20434;-42
2022/01/29 05:56:32;;;;;;;54.13;38.57;;;;;;;6.88;29.43;101342.75;5073395;28;20461;-42
2022/01/29 05:59:00;;;;;;;66.67;40.90;;;;;;;6.90;28.80;101334.66;5073875;28;20431;-42
2022/01/29 06:01:27;;;;;;;61.43;38.60;;;;;;;6.91;28.97;101347.75;5074026;28;20434;-45
2022/01/29 06:03:57;;;;;;;73.07;39.27;;;;;;;6.93;29.30;101340.44;5073804;28;20469;-44
2022/01/29 06:06:24;;;;;;;70.43;39.07;;;;;;;6.92;28.85;101333.50;5073319;28;20533;-43
2022/01/29 06:08:52;;;;;;;58.37;38.07;;;;;;;6.93;27.85;101316.59;5073393;28;20434;-44
2022/01/29 06:11:21;;;;;;;71.53;40.27;;;;;;;6.95;27.53;101321.75;5073838;28;20468;-47
2022/01/29 06:13:49;;;;;;;63.70;39.23;;;;;;;6.95;27.34;101338.50;5073566;28;20438;-43
2022/01/29 06:16:16;;;;;;;85.30;40.23;;;;;;;6.96;27.21;101331.38;5073109;28;20851;-42
2022/01/29 06:18:44;;;;;;;68.40;39.17;;;;;;;6.98;27.30;101338.16;5073308;28;20430;-44
2022/01/29 06:21:15;;;;;;;65.63;39.70;;;;;;;7.01;27.91;101323.75;5073327;28;20453;-46
2022/01/29 06:23:44;;;;;;;71.87;41.67;;;;;;;7.01;27.41;101339.66;5073643;28;20749;-44
2022/01/29 06:26:13;;;;;;;73.37;39.67;;;;;;;7.01;28.31;101342.31;5072969;28;20446;-45
2022/01/29 06:28:41;;;;;;;65.57;38.93;;;;;;;7.01;28.30;101347.63;5073234;28;20774;-47
2022/01/29 06:31:10;;;;;;;60.03;39.47;;;;;;;7.00;27.82;101344.13;5073347;28;20430;-42
2022/01/29 06:33:38;;;;;;;65.27;41.00;;;;;;;7.04;27.30;101324.28;5073195;28;20439;-47
2022/01/29 06:36:07;;;;;;;64.13;39.40;;;;;;;7.06;27.40;101343.50;5072737;28;20478;-47
2022/01/29 06:38:36;;;;;;;83.67;41.27;;;;;;;7.07;26.99;101328.44;5072808;28;20423;-45
2022/01/29 06:41:04;;;;;;;65.73;39.40;;;;;;;7.08;26.68;101319.47;5072937;28;20920;-45
2022/01/29 06:43:32;;;;;;;65.43;39.87;;;;;;;7.08;26.37;101319.47;5073041;28;20449;-43
2022/01/29 06:46:00;;;;;;;61.13;38.73;;;;;;;7.13;25.59;101311.88;5072295;28;20467;-42
2022/01/29 06:48:28;;;;;;;68.60;38.80;;;;;;;7.15;26.37;101286.84;5072610;28;20496;-45
2022/01/29 06:50:55;;;;;;;56.83;38.20;;;;;;;7.16;27.15;101303.59;5072263;28;20956;-44
2022/01/29 06:53:23;;;;;;;56.70;37.00;;;;;;;7.16;27.11;101309.75;5072861;28;20438;-42
2022/01/29 06:55:52;;;;;;;84.50;39.73;;;;;;;7.17;26.91;101307.88;5070961;28;20478;-45
2022/01/29 06:58:19;;;;;;;54.90;37.50;;;;;;;7.17;27.78;101307.88;5071913;28;20471;-44
2022/01/29 07:01:07;;;;;;;53.80;36.93;;;;;;;7.16;28.10;101293.81;5072916;28;20434;-44
2022/01/29 07:03:35;;;;;;;61.50;38.60;;;;;;;7.16;27.57;101309.75;5072779;28;20446;-46
2022/01/29 07:06:04;;;;;;;51.57;38.27;;;;;;;7.16;27.57;101296.47;5072106;28;20446;-44
2022/01/29 07:08:34;;;;;;;61.93;37.83;;;;;;;7.18;27.03;101299.78;5072458;28;20869;-42
2022/01/29 07:11:03;;;;;;;48.27;36.30;;;;;;;7.18;27.22;101294.47;5071981;28;20431;-43
2022/01/29 07:13:31;;;;;;;52.30;38.30;;;;;;;7.19;27.48;101297.97;5072430;28;20426;-44
2022/01/29 07:15:59;;;;;;;60.03;38.70;;;;;;;7.19;28.23;101303.28;5072036;28;20489;-44
2022/01/29 07:18:26;;;;;;;61.50;38.60;;;;;;;7.18;27.75;101296.31;5072333;28;20441;-43
2022/01/29 07:20:54;;;;;;;78.00;38.90;;;;;;;7.20;28.04;101303.09;5070912;28;20434;-42
2022/01/29 07:23:21;;;;;;;53.77;36.60;;;;;;;7.18;27.81;101305.09;5070603;28;20435;-46
2022/01/29 07:25:49;;;;;;;51.90;37.80;;;;;;;7.17;27.34;101299.94;5071741;28;20457;-43
2022/01/29 07:28:18;;;;;;;53.63;37.70;;;;;;;7.18;26.01;101289.19;5070953;28;20459;-42
2022/01/29 07:30:45;;;;;;;61.80;38.80;;;;;;;7.18;26.36;101283.03;5069625;28;20423;-47
2022/01/29 07:33:13;;;;;;;60.27;38.60;;;;;;;7.19;26.95;101266.97;5071074;28;20434;-42
2022/01/29 07:35:41;;;;;;;53.67;38.53;;;;;;;7.18;26.33;101257.34;5071890;28;20485;-44
2022/01/29 07:38:08;;;;;;;66.33;40.87;;;;;;;7.17;26.39;101262.81;5066976;28;20493;-45
2022/01/29 07:40:36;;;;;;;54.33;38.43;;;;;;;7.16;25.62;101256.69;5064557;28;20473;-45
2022/01/29 07:43:03;;;;;;;54.20;39.20;;;;;;;7.19;25.90;101266.97;5069019;28;20439;-42
2022/01/29 07:45:32;;;;;;;62.37;40.20;;;;;;;7.16;25.41;101253.22;5068256;28;21053;-43
2022/01/29 07:48:00;;;;;;;71.27;43.27;;;;;;;7.17;25.05;101245.06;5069032;28;20466;-49
2022/01/29 07:50:28;;;;;;;58.90;40.53;;;;;;;7.16;24.78;101240.78;5067067;28;20426;-46
2022/01/29 07:52:57;;;;;;;65.27;44.00;;;;;;;7.17;25.46;101230.97;5070584;28;20439;-47
2022/01/29 07:55:24;;;;;;;69.63;43.13;;;;;;;7.16;25.11;101235.47;5070950;28;20525;-43
2022/01/29 07:57:52;;;;;;;70.87;44.63;;;;;;;7.15;25.48;101235.63;5076880;23;20506;-52
2022/01/29 08:00:19;;;;;;;58.23;44.60;;;;;;;7.20;24.42;101222.69;5050307;28;20438;-51
2022/01/29 08:02:49;;;;;;;68.13;44.57;;;;;;;7.19;24.84;101221.88;5050359;28;20427;-55
2022/01/29 08:05:17;;;;;;;66.40;44.47;;;;;;;7.20;24.93;101223.53;5049322;28;20450;-51
2022/01/29 08:07:44;;;;;;;63.70;45.20;;;;;;;7.21;24.13;101211.94;5049173;28;20476;-54
2022/01/29 08:10:12;;;;;;;71.43;44.00;;;;;;;7.22;24.75;101218.06;5051391;28;20435;-54
2022/01/29 08:12:39;;;;;;;67.03;45.00;;;;;;;7.22;25.95;101223.38;5051486;28;20431;-55
2022/01/29 08:15:08;;;;;;;64.83;43.60;;;;;;;7.22;25.99;101213.59;5051374;28;20435;-52
2022/01/29 08:17:36;;;;;;;71.43;43.97;;;;;;;7.22;25.28;101192.38;5044869;28;20474;-52
2022/01/29 08:20:06;;;;;;;73.97;43.50;;;;;;;7.20;24.52;101194.34;5047854;28;20430;-52
2022/01/29 08:22:34;;;;;;;63.93;45.10;;;;;;;7.19;24.17;101183.91;5049374;28;20444;-55
2022/01/29 08:25:02;;;;;;;73.13;44.90;;;;;;;7.19;24.10;101190.06;5048491;28;20438;-49
2022/01/29 08:27:29;;;;;;;59.87;43.90;;;;;;;7.22;24.10;101175.63;5048922;28;20550;-54
2022/01/29 08:29:57;;;;;;;58.60;44.83;;;;;;;7.21;24.95;101174.78;5048599;28;20431;-51
2022/01/29 08:32:25;;;;;;;76.00;42.50;;;;;;;7.23;25.45;101162.19;5048697;28;20442;-52
2022/01/29 08:34:52;;;;;;;66.93;44.63;;;;;;;7.21;25.92;101166.84;5049563;28;20430;-53
2022/01/29 08:37:23;;;;;;;65.83;44.07;;;;;;;7.23;25.99;101167.50;5048838;28;20494;-50
2022/01/29 08:39:51;;;;;;;66.43;42.73;;;;;;;7.23;26.33;101172.81;5048724;28;20859;-49
2022/01/29 08:42:19;;;;;;;72.53;43.93;;;;;;;7.23;27.94;101170.16;5048839;28;20444;-53
2022/01/29 08:44:47;;;;;;;66.10;44.10;;;;;;;7.23;27.95;101170.16;5049085;28;20431;-50
2022/01/29 08:47:14;;;;;;;73.43;43.50;;;;;;;7.21;29.07;101163.34;5048414;28;20464;-48
2022/01/29 08:49:42;;;;;;;60.60;42.37;;;;;;;7.18;28.98;101151.25;5048950;28;20861;-50
2022/01/29 08:52:10;;;;;;;53.67;44.37;;;;;;;7.20;29.93;101153.72;5048495;28;20467;-51
2022/01/29 08:54:39;;;;;;;59.93;44.67;;;;;;;7.19;28.93;101139.66;5048946;28;20438;-50
2022/01/29 08:57:06;;;;;;;70.47;43.90;;;;;;;7.18;28.50;101135.34;5048645;28;20471;-48
2022/01/29 08:59:34;;;;;;;71.50;42.90;;;;;;;7.18;28.99;101137.16;5047573;28;20424;-50
2022/01/29 09:02:02;;;;;;;74.37;42.90;;;;;;;7.18;28.95;101134.50;5048070;28;20940;-52
2022/01/29 09:04:29;;;;;;;68.63;44.00;;;;;;;7.18;28.64;101130.03;5052049;28;20427;-53
2022/01/29 09:06:57;;;;;;;68.20;42.67;;;;;;;7.17;28.32;101111.63;5052404;28;20465;-53
2022/01/29 09:09:26;;;;;;;72.63;41.97;;;;;;;7.17;28.24;101117.75;5051981;28;21162;-50
2022/01/29 09:12:01;;;;;;;55.73;40.77;;;;;;;7.17;28.69;101124.88;5051904;28;20534;-51
2022/01/29 09:14:29;;;;;;;70.33;42.57;;;;;;;7.17;27.19;101122.22;5047598;28;20920;-52
2022/01/29 09:16:57;;;;;;;55.33;41.87;;;;;;;7.21;28.18;101108.47;5052223;28;20471;-53
2022/01/29 09:19:25;;;;;;;61.87;40.90;;;;;;;7.20;28.60;101108.63;5051950;28;20442;-49
2022/01/29 09:21:52;;;;;;;54.00;40.40;;;;;;;7.18;26.63;101124.72;5049536;28;20435;-50
2022/01/29 09:24:20;;;;;;;87.03;41.77;;;;;;;7.18;27.36;101116.78;5054105;28;20435;-54
2022/01/29 09:26:47;;;;;;;65.30;41.67;;;;;;;7.20;28.08;101101.50;5053770;28;20459;-53
2022/01/29 09:29:16;;;;;;;78.30;40.67;;;;;;;7.22;28.12;101093.41;5054115;28;20463;-55
2022/01/29 09:31:44;;;;;;;54.03;40.93;;;;;;;7.21;27.94;101079.31;5054130;28;20424;-54
2022/01/29 09:34:13;;;;;;;57.03;38.43;;;;;;;7.21;27.58;101055.44;5054000;28;20907;-47
2022/01/29 09:36:40;;;;;;;57.73;40.47;;;;;;;7.22;27.96;101065.06;5053339;28;20463;-51
2022/01/29 09:39:08;;;;;;;64.97;39.70;;;;;;;7.22;28.22;101062.41;5053640;28;20462;-52
2022/01/29 09:41:38;;;;;;;58.83;38.83;;;;;;;7.21;29.01;101052.78;5053726;28;20446;-51
2022/01/29 09:44:06;;;;;;;60.13;38.03;;;;;;;7.20;29.53;101051.13;5053944;28;20438;-52
2022/01/29 09:46:35;;;;;;;59.67;37.00;;;;;;;7.18;29.29;101026.59;5053103;28;20534;-51
2022/01/29 09:49:04;;;;;;;58.87;36.77;;;;;;;7.22;28.03;101029.75;5053578;28;20451;-52
2022/01/29 09:51:32;;;;;;;65.47;38.10;;;;;;;7.27;28.13;101013.31;5053584;28;20439;-53
2022/01/29 09:54:00;;;;;;;52.60;37.53;;;;;;;7.33;29.12;101015.28;5053458;28;20427;-53
2022/01/29 09:56:28;;;;;;;65.37;39.47;;;;;;;7.31;30.74;101015.47;5053169;28;20477;-54
2022/01/29 09:58:56;;;;;;;63.53;37.57;;;;;;;7.31;31.25;100998.72;5053238;28;20793;-51
2022/01/29 10:01:24;;;;;;;55.07;36.67;;;;;;;7.35;31.44;101000.06;5053658;28;20435;-48
2022/01/29 10:04:01;;;;;;;51.60;35.43;;;;;;;7.34;31.34;100985.97;5053815;28;20510;-49
2022/01/29 10:06:29;;;;;;;47.67;33.63;;;;;;;7.32;31.37;100979.97;5050047;28;20454;-49
2022/01/29 10:08:59;;;;;;;60.03;35.10;;;;;;;7.33;31.94;100975.50;5050307;28;20447;-50
2022/01/29 10:11:28;;;;;;;43.53;35.83;;;;;;;7.38;32.16;100965.22;5051175;28;20447;-47
2022/01/29 10:13:59;;;;;;;62.93;36.20;;;;;;;7.35;32.83;100955.75;5050652;28;20440;-51
2022/01/29 10:16:28;;;;;;;55.53;37.70;;;;;;;7.41;32.76;100963.03;5049205;28;20463;-46
2022/01/29 10:19:03;;;;;;;56.57;33.03;;;;;;;7.43;35.19;100954.91;5049274;28;20467;-49
2022/01/29 10:21:33;;;;;;;50.07;33.03;;;;;;;7.37;35.64;100945.00;5048936;28;21050;-49
2022/01/29 10:24:05;;;;;;;45.97;35.13;;;;;;;7.41;36.17;100946.28;5049566;28;20431;-49
2022/01/29 10:26:34;;;;;;;44.93;34.37;;;;;;;7.39;37.46;100943.81;5050010;28;20459;-49
2022/01/29 10:29:05;;;;;;;65.00;36.47;;;;;;;7.41;38.45;100922.41;5049136;28;21185;-48
2022/01/29 10:31:41;;;;;;;60.20;32.83;;;;;;;7.42;38.91;100918.75;5048641;28;20925;-46
2022/01/29 10:34:21;;;;;;;52.10;32.43;;;;;;;7.46;39.22;100912.13;5049313;28;21033;-45
2022/01/29 10:37:13;;;;;;;53.97;31.97;;;;;;;7.48;40.61;100912.78;5048840;28;20479;-49
2022/01/29 10:39:42;;;;;;;48.90;30.87;;;;;;;7.52;42.77;100893.69;5048669;28;20443;-52
2022/01/29 10:42:17;;;;;;;53.17;30.37;;;;;;;7.53;45.83;100895.31;5049256;28;20447;-50
2022/01/29 10:44:47;;;;;;;39.93;29.83;;;;;;;7.54;47.54;100881.06;5048808;28;20931;-53
2022/01/29 10:47:15;;;;;;;42.40;30.57;;;;;;;7.59;49.58;100881.38;5048708;28;20463;-52
2022/01/29 10:49:52;;;;;;;41.90;28.63;;;;;;;7.64;52.24;100888.81;5048489;28;20428;-45
2022/01/29 10:52:28;;;;;;;28.80;25.80;;;;;;;7.66;54.66;100897.44;5049116;28;20526;-44
2022/01/29 10:54:59;;;;;;;33.63;27.17;;;;;;;7.67;57.24;100901.75;5049260;28;20439;-47
2022/01/29 10:57:35;;;;;;;33.03;25.77;;;;;;;7.63;58.42;100906.56;5047945;28;20547;-48
2022/01/29 11:00:06;;;;;;;39.30;26.17;;;;;;;7.70;59.58;100912.00;5048502;28;20446;-46
2022/01/29 11:02:36;;;;;;;46.03;25.13;;;;;;;7.66;60.96;100903.56;5048584;28;20506;-50
2022/01/29 11:05:06;;;;;;;32.80;26.03;;;;;;;7.71;61.63;100914.47;5048993;28;20483;-45
2022/01/29 11:07:35;;;;;;;29.57;25.87;;;;;;;7.76;63.34;100900.69;5047879;28;20471;-45
2022/01/29 11:10:06;;;;;;;30.87;24.33;;;;;;;7.76;66.26;100919.28;5048061;28;20447;-44
2022/01/29 11:12:43;;;;;;;34.13;25.43;;;;;;;7.76;67.12;100898.84;5048425;28;21261;-48
2022/01/29 11:15:11;;;;;;;28.40;23.77;;;;;;;7.76;70.46;100884.78;5048750;28;20489;-46
2022/01/29 11:17:39;;;;;;;27.70;22.80;;;;;;;7.78;71.10;100882.75;5047483;28;20475;-47
2022/01/29 11:20:10;;;;;;;32.60;24.80;;;;;;;7.76;71.87;100864.34;5047808;28;20440;-47
2022/01/29 11:22:40;;;;;;;39.57;23.60;;;;;;;7.78;72.25;100861.53;5048680;28;20444;-51
2022/01/29 11:25:11;;;;;;;32.67;23.10;;;;;;;7.80;73.36;100864.81;5048011;28;20527;-45
2022/01/29 11:27:41;;;;;;;32.23;22.60;;;;;;;7.78;74.32;100853.56;5047499;28;20463;-48
2022/01/29 11:30:14;;;;;;;27.77;24.30;;;;;;;7.76;73.57;100840.44;5048030;28;20490;-46
2022/01/29 11:32:44;;;;;;;29.47;22.90;;;;;;;7.79;73.58;100831.31;5048252;28;20474;-48